Time;durP1;ratioP1;P1;durP2;ratioP2;P2;SDS_P1;SDS_P2;PMS_P1;PMS_P2;Temp;Humidity;BMP_temperature;BMP_pressure;BME280_temperature;BME280_humidity;BME280_pressure;Samples;Min_cycle;Max_cycle;Signal;HPM_P1;HPM_P2
2021/01/08 00:00:55;;;;;;;42.10;27.00;;;;;;;0.57;84.04;99641.66;120541;1151;104324;-83
2021/01/08 00:03:23;;;;;;;50.93;30.90;;;;;;;0.59;83.99;99647.64;120491;1151;104350;-83
2021/01/08 00:05:50;;;;;;;41.63;24.10;;;;;;;0.60;83.63;99649.34;120562;1149;104442;-83
2021/01/08 00:08:19;;;;;;;41.77;25.90;;;;;;;0.59;83.95;99645.92;120528;1150;104588;-83
2021/01/08 00:10:48;;;;;;;45.83;28.53;;;;;;;0.57;83.86;99647.64;120619;1150;104300;-83
2021/01/08 00:13:16;;;;;;;49.57;29.47;;;;;;;0.55;83.64;99644.23;120582;1150;104998;-83
2021/01/08 00:15:43;;;;;;;43.97;27.67;;;;;;;0.56;83.86;99645.94;120542;1150;104415;-82
2021/01/08 00:18:11;;;;;;;46.63;27.60;;;;;;;0.56;83.77;99639.95;120524;1151;104334;-82
2021/01/08 00:20:44;;;;;;;44.17;26.27;;;;;;;0.54;83.77;99642.52;120628;1150;104510;-82
2021/01/08 00:23:12;;;;;;;47.03;28.10;;;;;;;0.54;83.83;99642.52;121406;1151;102964;-83
2021/01/08 00:25:39;;;;;;;50.27;30.67;;;;;;;0.56;83.89;99645.08;121431;1150;104230;-82
2021/01/08 00:28:08;;;;;;;45.47;27.87;;;;;;;0.53;83.71;99645.06;120642;1151;104815;-82
2021/01/08 00:30:35;;;;;;;48.00;28.00;;;;;;;0.52;83.90;99643.35;120564;1150;104401;-82
2021/01/08 00:33:02;;;;;;;53.57;31.10;;;;;;;0.52;83.69;99643.35;120549;1151;104440;-82
2021/01/08 00:35:30;;;;;;;48.57;28.37;;;;;;;0.52;84.07;99639.08;120596;1150;104908;-82
2021/01/08 00:37:57;;;;;;;48.02;28.02;;;;;;;0.52;83.96;99639.08;120577;1151;104320;-82
2021/01/08 00:40:24;;;;;;;42.90;27.43;;;;;;;0.51;84.05;99647.62;120562;1150;104407;-82
2021/01/08 00:42:51;;;;;;;46.87;28.33;;;;;;;0.47;83.97;99645.93;120676;1151;104335;-82
2021/01/08 00:45:19;;;;;;;48.23;28.53;;;;;;;0.48;84.17;99651.91;120607;1151;102378;-82
2021/01/08 00:47:46;;;;;;;48.80;28.43;;;;;;;0.48;84.06;99647.64;120553;1150;104549;-82
2021/01/08 00:50:14;;;;;;;45.67;27.73;;;;;;;0.48;83.89;99657.91;120531;1151;104550;-82
2021/01/08 00:52:41;;;;;;;44.63;27.42;;;;;;;0.47;83.77;99653.62;120588;1151;104347;-82
2021/01/08 00:55:10;;;;;;;47.13;27.37;;;;;;;0.48;84.04;99655.33;120578;1151;104551;-82
2021/01/08 00:57:44;;;;;;;45.07;28.00;;;;;;;0.48;83.96;99652.77;120588;1151;103669;-83
2021/01/08 01:00:13;;;;;;;50.73;29.90;;;;;;;0.47;84.08;99653.62;120565;1151;102518;-83
2021/01/08 01:02:40;;;;;;;46.07;27.70;;;;;;;0.48;84.04;99652.77;120580;1151;104428;-83
2021/01/08 01:05:08;;;;;;;44.90;28.03;;;;;;;0.49;84.28;99654.48;120635;1151;104352;-83
2021/01/08 01:07:35;;;;;;;43.30;27.17;;;;;;;0.50;83.95;99655.33;120570;1154;104422;-83
2021/01/08 01:10:03;;;;;;;44.33;27.10;;;;;;;0.51;84.33;99660.45;120615;1151;104380;-83
2021/01/08 01:12:30;;;;;;;42.57;25.93;;;;;;;0.54;84.05;99654.50;120618;1151;104522;-83
2021/01/08 01:14:57;;;;;;;48.60;28.47;;;;;;;0.56;84.45;99663.05;120582;1150;104386;-83
2021/01/08 01:17:24;;;;;;;42.57;26.57;;;;;;;0.55;84.14;99661.34;120623;1151;105075;-83
2021/01/08 01:19:54;;;;;;;45.87;27.63;;;;;;;0.56;84.00;99663.05;120594;1151;104333;-83
2021/01/08 01:22:21;;;;;;;45.60;26.73;;;;;;;0.55;84.32;99659.63;120590;1151;104561;-83
2021/01/08 01:24:48;;;;;;;42.95;25.35;;;;;;;0.56;83.90;99663.89;120632;1150;104362;-83
2021/01/08 01:27:15;;;;;;;47.43;27.93;;;;;;;0.57;84.22;99655.34;120501;1151;104474;-83
2021/01/08 01:29:42;;;;;;;41.53;25.30;;;;;;;0.59;84.13;99661.32;120532;1151;104901;-83
2021/01/08 01:32:09;;;;;;;47.40;27.63;;;;;;;0.60;84.43;99657.90;120573;1151;104455;-83
2021/01/08 01:34:37;;;;;;;42.10;26.27;;;;;;;0.61;84.21;99658.75;120604;1151;104383;-83
2021/01/08 01:37:04;;;;;;;39.67;23.60;;;;;;;0.62;84.75;99660.45;120629;1150;104444;-83
2021/01/08 01:39:31;;;;;;;43.47;26.10;;;;;;;0.63;83.86;99656.18;120580;1151;103131;-83
2021/01/08 01:41:58;;;;;;;43.67;25.57;;;;;;;0.60;84.14;99657.90;120730;1151;104397;-83
2021/01/08 01:44:25;;;;;;;44.87;27.40;;;;;;;0.61;84.09;99663.88;120616;1151;104291;-83
2021/01/08 01:46:53;;;;;;;42.23;27.53;;;;;;;0.59;84.29;99663.89;120553;1153;104354;-83
2021/01/08 01:49:20;;;;;;;45.27;26.47;;;;;;;0.62;84.22;99662.17;120498;1151;104452;-82
2021/01/08 01:51:47;;;;;;;47.60;28.17;;;;;;;0.62;84.16;99655.33;120519;1150;104419;-83
2021/01/08 01:54:14;;;;;;;45.20;27.53;;;;;;;0.62;84.17;99650.19;120565;1151;104297;-83
2021/01/08 01:56:41;;;;;;;42.53;26.50;;;;;;;0.62;83.99;99659.60;120548;1150;104412;-83
2021/01/08 01:59:08;;;;;;;45.37;27.57;;;;;;;0.63;84.06;99653.61;120634;1150;104510;-83
2021/01/08 02:01:35;;;;;;;48.30;28.07;;;;;;;0.62;83.82;99649.34;120594;1151;104416;-83
2021/01/08 02:04:04;;;;;;;44.50;26.87;;;;;;;0.62;84.03;99650.19;120688;1150;104331;-82
2021/01/08 02:06:36;;;;;;;41.55;26.65;;;;;;;0.62;83.95;99644.20;120713;1151;104452;-82
2021/01/08 02:09:09;;;;;;;39.40;25.10;;;;;;;0.60;84.14;99647.63;120570;1151;104545;-82
2021/01/08 02:11:38;;;;;;;39.93;25.80;;;;;;;0.60;84.29;99647.63;120558;1151;104352;-82
2021/01/08 02:14:27;;;;;;;42.23;26.27;;;;;;;0.59;84.20;99642.50;120614;1151;104452;-82
2021/01/08 02:16:57;;;;;;;42.37;25.13;;;;;;;0.59;84.32;99645.07;121005;1150;103303;-82
2021/01/08 02:19:34;;;;;;;42.30;25.37;;;;;;;0.62;84.13;99647.62;121436;1151;102221;-82
2021/01/08 02:22:09;;;;;;;;;;;;;;;0.64;84.17;99642.48;121449;1150;104329;-82
2021/01/08 02:24:47;;;;;;;36.87;23.10;;;;;;;0.63;83.98;99638.22;120590;1151;104374;-83
2021/01/08 02:27:14;;;;;;;43.10;26.10;;;;;;;0.67;84.11;99642.48;120581;1150;103559;-82
2021/01/08 02:29:42;;;;;;;40.97;24.57;;;;;;;0.70;83.71;99650.16;120619;1149;104378;-82
2021/01/08 02:32:09;;;;;;;39.40;24.15;;;;;;;0.71;84.18;99649.30;120561;1151;104343;-83
2021/01/08 02:34:37;;;;;;;40.88;25.00;;;;;;;0.72;84.08;99649.34;120564;1150;103240;-83
2021/01/08 02:37:04;;;;;;;41.83;25.37;;;;;;;0.72;83.98;99651.02;120589;1150;104458;-82
2021/01/08 02:39:32;;;;;;;36.90;23.27;;;;;;;0.72;83.90;99653.58;120548;1151;104396;-83
2021/01/08 02:42:00;;;;;;;41.53;24.53;;;;;;;0.69;83.66;99651.02;120562;1151;104305;-83
2021/01/08 02:44:28;;;;;;;43.13;25.60;;;;;;;0.66;83.81;99662.16;120638;1151;104401;-83
2021/01/08 02:46:55;;;;;;;41.58;25.20;;;;;;;0.67;83.76;99655.31;120524;1151;104436;-83
2021/01/08 02:49:22;;;;;;;42.20;25.60;;;;;;;0.67;84.05;99657.87;120560;1154;102066;-83
2021/01/08 02:51:49;;;;;;;39.27;25.10;;;;;;;0.67;83.80;99657.87;120566;1151;104357;-83
2021/01/08 02:54:16;;;;;;;39.17;23.53;;;;;;;0.68;83.64;99662.16;120566;1150;104338;-81
2021/01/08 02:56:47;;;;;;;39.80;23.93;;;;;;;0.66;83.75;99656.17;120614;1151;104463;-83
2021/01/08 02:59:14;;;;;;;40.30;24.70;;;;;;;0.64;83.71;99652.75;120613;1151;104381;-83
2021/01/08 03:01:42;;;;;;;40.53;24.43;;;;;;;0.66;84.11;99653.61;120573;1150;104475;-82
2021/01/08 03:04:11;;;;;;;39.23;24.57;;;;;;;0.66;83.76;99651.03;120580;1150;104330;-82
2021/01/08 03:06:41;;;;;;;34.65;22.65;;;;;;;0.66;83.69;99656.17;120614;1151;104251;-82
2021/01/08 03:09:09;;;;;;;39.57;22.53;;;;;;;0.67;83.69;99660.44;120605;1151;104334;-82
2021/01/08 03:11:36;;;;;;;37.83;23.17;;;;;;;0.67;83.68;99652.75;120630;1151;103204;-82
2021/01/08 03:14:04;;;;;;;40.08;23.92;;;;;;;0.68;83.73;99664.72;120579;1151;104317;-82
2021/01/08 03:16:32;;;;;;;38.97;23.10;;;;;;;0.68;83.79;99659.58;120652;1151;104458;-83
2021/01/08 03:18:59;;;;;;;41.07;23.10;;;;;;;0.69;84.07;99661.30;120575;1150;104546;-83
2021/01/08 03:21:26;;;;;;;36.40;22.20;;;;;;;0.71;83.45;99667.27;120612;1150;103316;-83
2021/01/08 03:23:53;;;;;;;36.93;22.90;;;;;;;0.70;83.63;99673.27;120583;1150;104415;-82
2021/01/08 03:26:20;;;;;;;37.80;23.17;;;;;;;0.72;83.86;99667.30;120614;1151;104374;-82
2021/01/08 03:28:47;;;;;;;36.77;22.10;;;;;;;0.70;83.68;99673.27;120601;1151;104436;-82
2021/01/08 03:31:14;;;;;;;35.13;22.20;;;;;;;0.68;83.76;99670.70;120653;1151;103187;-82
2021/01/08 03:33:42;;;;;;;37.30;22.23;;;;;;;0.67;83.65;99673.27;120653;1151;104470;-82
2021/01/08 03:36:09;;;;;;;35.07;22.10;;;;;;;0.66;83.61;99672.42;120579;1151;104477;-82
2021/01/08 03:38:36;;;;;;;37.48;23.25;;;;;;;0.67;83.72;99678.41;120596;1152;104379;-83
2021/01/08 03:41:03;;;;;;;35.27;22.30;;;;;;;0.69;83.86;99681.83;120524;1151;103153;-82
2021/01/08 03:43:30;;;;;;;37.93;23.10;;;;;;;0.67;83.76;99673.27;120607;1151;104435;-83
2021/01/08 03:45:58;;;;;;;34.83;21.60;;;;;;;0.67;83.65;99679.27;120664;1151;104396;-83
2021/01/08 03:48:26;;;;;;;37.10;22.63;;;;;;;0.66;83.48;99680.13;120643;1151;104441;-83
2021/01/08 03:50:53;;;;;;;35.63;21.30;;;;;;;0.66;83.58;99680.13;120586;1150;104323;-82
2021/01/08 03:53:20;;;;;;;34.65;21.42;;;;;;;0.66;83.62;99674.98;120672;1151;104314;-81
2021/01/08 03:55:48;;;;;;;36.90;22.23;;;;;;;0.67;83.52;99671.56;120641;1151;104319;-83
2021/01/08 03:58:15;;;;;;;34.85;21.37;;;;;;;0.68;83.67;99673.27;120667;1150;104457;-83
2021/01/08 04:00:42;;;;;;;37.57;22.43;;;;;;;0.69;83.50;99677.55;120643;1151;104512;-82
2021/01/08 04:03:09;;;;;;;34.03;21.10;;;;;;;0.70;83.24;99668.13;120669;1150;104974;-82
2021/01/08 04:05:36;;;;;;;37.63;22.20;;;;;;;0.68;83.46;99669.85;120652;1151;103107;-83
2021/01/08 04:08:03;;;;;;;35.27;21.63;;;;;;;0.69;83.34;99676.69;120651;1151;104378;-83
2021/01/08 04:10:30;;;;;;;34.78;21.40;;;;;;;0.70;82.93;99668.98;120609;1151;104428;-83
2021/01/08 04:12:57;;;;;;;31.73;20.03;;;;;;;0.71;83.44;99677.54;120801;1150;104442;-82
2021/01/08 04:15:24;;;;;;;36.50;22.27;;;;;;;0.70;83.20;99668.13;121532;1153;101952;-82
2021/01/08 04:17:52;;;;;;;37.27;20.97;;;;;;;0.68;83.34;99670.70;121454;1150;102357;-82
2021/01/08 04:20:19;;;;;;;36.60;20.70;;;;;;;0.67;83.08;99663.01;120850;1151;104418;-82
2021/01/08 04:22:46;;;;;;;37.17;21.30;;;;;;;0.68;83.22;99674.98;120522;1150;104428;-82
2021/01/08 04:25:13;;;;;;;34.87;21.07;;;;;;;0.64;83.14;99674.14;120652;1151;103049;-82
2021/01/08 04:27:40;;;;;;;33.97;20.20;;;;;;;0.63;83.08;99676.70;120671;1150;103287;-81
2021/01/08 04:30:09;;;;;;;34.30;20.57;;;;;;;0.63;83.07;99681.84;120668;1151;104327;-81
2021/01/08 04:32:36;;;;;;;34.77;20.20;;;;;;;0.62;83.04;99675.00;120652;1150;104391;-81
2021/01/08 04:35:04;;;;;;;34.30;20.00;;;;;;;0.60;83.01;99675.86;120682;1149;104456;-83
2021/01/08 04:37:31;;;;;;;33.07;19.90;;;;;;;0.62;83.05;99680.98;120595;1149;104433;-83
2021/01/08 04:39:58;;;;;;;34.67;21.50;;;;;;;0.63;83.21;99681.84;120595;1151;104319;-82
2021/01/08 04:42:25;;;;;;;35.07;21.43;;;;;;;0.62;82.94;99680.98;120718;1151;104319;-82
2021/01/08 04:44:52;;;;;;;32.90;19.90;;;;;;;0.62;83.21;99685.27;120663;1151;104553;-83
2021/01/08 04:47:22;;;;;;;34.93;21.00;;;;;;;0.60;82.97;99680.99;120666;1151;104852;-83
2021/01/08 04:49:49;;;;;;;35.57;22.17;;;;;;;0.58;82.78;99677.58;120663;1151;102555;-81
2021/01/08 04:52:18;;;;;;;32.97;19.50;;;;;;;0.59;82.85;99681.00;120621;1151;104326;-83
2021/01/08 04:54:45;;;;;;;34.43;19.70;;;;;;;0.58;83.05;99685.28;120654;1151;104397;-82
2021/01/08 04:57:15;;;;;;;35.77;21.33;;;;;;;0.56;82.96;99684.42;120648;1149;104309;-83
2021/01/08 04:59:42;;;;;;;35.53;21.33;;;;;;;0.55;82.82;99679.30;120636;1151;104421;-82
2021/01/08 05:02:10;;;;;;;34.43;21.70;;;;;;;0.52;82.88;99674.14;120652;1151;104512;-83
2021/01/08 05:04:39;;;;;;;35.87;21.00;;;;;;;0.50;82.96;99686.97;120658;1151;104487;-81
2021/01/08 05:07:07;;;;;;;34.77;21.67;;;;;;;0.52;83.08;99679.27;120649;1151;104330;-82
2021/01/08 05:09:34;;;;;;;35.80;21.20;;;;;;;0.51;82.60;99688.68;120662;1151;104393;-83
2021/01/08 05:12:01;;;;;;;38.50;21.87;;;;;;;0.50;83.04;99686.12;120628;1153;104322;-82
2021/01/08 05:14:28;;;;;;;36.27;21.37;;;;;;;0.50;83.09;99686.97;120686;1151;104357;-82
2021/01/08 05:16:56;;;;;;;34.73;21.17;;;;;;;0.49;83.02;99689.54;120662;1150;104390;-82
2021/01/08 05:19:24;;;;;;;33.40;19.65;;;;;;;0.47;83.23;99686.98;120660;1151;104529;-83
2021/01/08 05:21:53;;;;;;;35.17;20.33;;;;;;;0.45;83.09;99686.13;120611;1150;104419;-82
2021/01/08 05:24:25;;;;;;;33.03;20.53;;;;;;;0.42;83.12;99691.27;120709;1150;104889;-83
2021/01/08 05:26:52;;;;;;;34.50;20.67;;;;;;;0.40;82.97;99692.98;120655;1151;103267;-82
2021/01/08 05:29:19;;;;;;;34.70;20.90;;;;;;;0.38;83.25;99696.41;120647;1151;104423;-81
2021/01/08 05:31:51;;;;;;;36.07;20.67;;;;;;;0.39;83.15;99693.84;120683;1151;104380;-82
2021/01/08 05:34:29;;;;;;;33.75;20.40;;;;;;;0.38;83.17;99687.00;120648;1151;104377;-82
2021/01/08 05:36:57;;;;;;;34.03;19.37;;;;;;;0.36;82.86;99682.70;120658;1150;103051;-82
2021/01/08 05:39:26;;;;;;;37.27;21.23;;;;;;;0.35;82.92;99692.10;120706;1151;104789;-83
2021/01/08 05:41:55;;;;;;;31.57;19.37;;;;;;;0.34;82.96;99685.27;120638;1150;104421;-83
2021/01/08 05:44:23;;;;;;;33.37;20.03;;;;;;;0.34;83.26;99700.66;120647;1150;101964;-82
2021/01/08 05:46:50;;;;;;;34.20;20.35;;;;;;;0.34;83.08;99705.78;120634;1150;104380;-82
2021/01/08 05:49:19;;;;;;;36.40;21.47;;;;;;;0.32;83.05;99702.37;120656;1151;104355;-82
2021/01/08 05:51:47;;;;;;;36.60;21.37;;;;;;;0.31;82.95;99698.09;120724;1151;103260;-82
2021/01/08 05:54:14;;;;;;;34.60;21.37;;;;;;;0.30;83.06;99704.08;120682;1151;103281;-81
2021/01/08 05:56:41;;;;;;;34.00;20.75;;;;;;;0.29;83.22;99707.50;120664;1151;104332;-81
2021/01/08 05:59:09;;;;;;;33.03;20.47;;;;;;;0.30;83.21;99706.64;120651;1151;104417;-82
2021/01/08 06:01:39;;;;;;;33.20;20.55;;;;;;;0.29;83.16;99708.35;120662;1151;104607;-82
2021/01/08 06:04:08;;;;;;;31.60;19.30;;;;;;;0.30;83.27;99715.19;120764;1150;102529;-82
2021/01/08 06:06:43;;;;;;;36.30;21.50;;;;;;;0.31;83.35;99713.48;121286;1150;104350;-82
2021/01/08 06:09:15;;;;;;;33.33;19.77;;;;;;;0.29;82.83;99713.48;121512;1150;104345;-82
2021/01/08 06:11:45;;;;;;;34.10;20.17;;;;;;;0.27;83.04;99715.20;121185;1154;104404;-81
2021/01/08 06:14:16;;;;;;;36.07;21.20;;;;;;;0.28;83.05;99716.05;120696;1151;104372;-82
2021/01/08 06:16:46;;;;;;;36.30;21.40;;;;;;;0.32;83.14;99724.59;120692;1149;104556;-82
2021/01/08 06:19:16;;;;;;;39.20;23.03;;;;;;;0.33;82.98;99723.74;120641;1151;104464;-83
2021/01/08 06:21:46;;;;;;;43.33;23.87;;;;;;;0.34;82.92;99726.30;120677;1151;104380;-83
2021/01/08 06:24:25;;;;;;;34.83;21.07;;;;;;;0.31;82.72;99731.44;120683;1151;104187;-82
2021/01/08 06:26:53;;;;;;;39.97;23.47;;;;;;;0.30;82.82;99724.59;120627;1151;104304;-83
2021/01/08 06:29:26;;;;;;;42.50;23.90;;;;;;;0.30;82.69;99735.71;120616;1151;104978;-83
2021/01/08 06:31:57;;;;;;;41.20;24.30;;;;;;;0.31;82.75;99739.12;120649;1151;104384;-82
2021/01/08 06:34:29;;;;;;;40.13;24.13;;;;;;;0.28;82.78;99736.57;120673;1150;102944;-82
2021/01/08 06:37:06;;;;;;;46.50;25.13;;;;;;;0.27;82.76;99739.98;120698;1151;104385;-83
2021/01/08 06:39:38;;;;;;;38.75;23.40;;;;;;;0.27;82.96;99737.42;120715;1150;104367;-82
2021/01/08 06:42:07;;;;;;;40.13;23.63;;;;;;;0.28;82.86;99750.25;120710;1151;104353;-83
2021/01/08 06:44:35;;;;;;;37.97;22.93;;;;;;;0.26;82.62;99746.83;120679;1151;104384;-82
2021/01/08 06:47:05;;;;;;;43.50;24.00;;;;;;;0.29;83.06;99748.53;120594;1151;104319;-82
2021/01/08 06:49:40;;;;;;;38.87;22.77;;;;;;;0.28;82.71;99749.39;120680;1151;104316;-82
2021/01/08 06:52:07;;;;;;;37.20;21.90;;;;;;;0.26;82.50;99744.27;120656;1151;104489;-83
2021/01/08 06:54:39;;;;;;;38.77;21.53;;;;;;;0.24;82.71;99745.12;120623;1151;103060;-83
2021/01/08 06:57:16;;;;;;;37.77;22.23;;;;;;;0.22;82.58;99745.12;120627;1151;104437;-83
2021/01/08 06:59:55;;;;;;;39.00;23.03;;;;;;;0.22;82.83;99751.95;120622;1149;104509;-83
2021/01/08 07:02:25;;;;;;;37.80;22.77;;;;;;;0.22;82.75;99762.22;120570;1150;104372;-83
2021/01/08 07:04:54;;;;;;;42.00;23.35;;;;;;;0.25;82.52;99755.38;120622;1150;104455;-82
2021/01/08 07:07:24;;;;;;;39.37;23.17;;;;;;;0.26;82.73;99761.36;120601;1150;104384;-83
2021/01/08 07:09:54;;;;;;;40.70;22.90;;;;;;;0.27;82.47;99763.08;120607;1151;104855;-83
2021/01/08 07:12:23;;;;;;;42.25;23.50;;;;;;;0.30;82.79;99765.64;120585;1151;104418;-83
2021/01/08 07:14:51;;;;;;;42.27;23.73;;;;;;;0.33;82.73;99764.78;120610;1151;104471;-83
2021/01/08 07:17:32;;;;;;;38.93;22.67;;;;;;;0.35;82.60;99770.77;120566;1151;104323;-81
2021/01/08 07:20:03;;;;;;;36.60;22.47;;;;;;;0.36;82.71;99755.41;120657;1150;102438;-82
2021/01/08 07:22:39;;;;;;;39.20;23.37;;;;;;;0.39;82.78;99770.80;120579;1150;104323;-83
2021/01/08 07:25:13;;;;;;;39.88;23.55;;;;;;;0.41;82.62;99768.23;120612;1151;104385;-83
2021/01/08 07:27:42;;;;;;;41.80;24.87;;;;;;;0.40;82.17;99772.50;120604;1151;104265;-83
2021/01/08 07:30:13;;;;;;;43.47;24.47;;;;;;;0.38;82.05;99774.22;120592;1150;104397;-83
2021/01/08 07:32:45;;;;;;;45.50;26.00;;;;;;;0.42;82.29;99773.36;120614;1151;103187;-83
2021/01/08 07:35:16;;;;;;;41.47;23.60;;;;;;;0.44;82.28;99774.21;120637;1150;103703;-83
2021/01/08 07:38:02;;;;;;;40.93;23.87;;;;;;;0.46;82.36;99777.63;120556;1151;104319;-83
2021/01/08 07:40:34;;;;;;;38.33;23.27;;;;;;;0.48;82.04;99781.05;120711;1150;104313;-83
2021/01/08 07:43:01;;;;;;;36.10;22.40;;;;;;;0.47;82.01;99787.04;120646;1150;104220;-83
2021/01/08 07:46:02;;;;;;;38.03;22.63;;;;;;;0.45;81.55;99783.62;120620;1151;104354;-83
2021/01/08 07:48:31;;;;;;;41.40;24.15;;;;;;;0.46;82.02;99787.04;120530;1151;104355;-83
2021/01/08 07:51:00;;;;;;;41.07;23.63;;;;;;;0.48;82.06;99788.75;120669;1150;104389;-83
2021/01/08 07:53:48;;;;;;;40.30;23.53;;;;;;;0.51;81.96;99793.88;120717;1150;104477;-83
2021/01/08 07:56:22;;;;;;;39.07;22.97;;;;;;;0.55;81.93;99792.20;120642;1150;104443;-82
2021/01/08 07:58:54;;;;;;;38.37;22.37;;;;;;;0.56;81.82;99799.89;120618;1150;104346;-82
2021/01/08 08:01:21;;;;;;;36.97;21.03;;;;;;;0.53;81.50;99793.88;120716;1151;103199;-82
2021/01/08 08:03:58;;;;;;;37.83;22.13;;;;;;;0.53;81.70;99802.43;121366;1150;104397;-82
2021/01/08 08:06:28;;;;;;;39.57;22.90;;;;;;;0.56;81.33;99805.02;121407;1150;104323;-82
2021/01/08 08:09:16;;;;;;;38.47;22.90;;;;;;;0.58;81.59;99798.19;120898;1151;104298;-82
2021/01/08 08:11:46;;;;;;;43.30;24.40;;;;;;;0.63;81.62;99805.02;120592;1150;104327;-82
2021/01/08 08:14:15;;;;;;;33.67;19.93;;;;;;;0.64;81.38;99811.86;120527;1150;104449;-81
2021/01/08 08:16:44;;;;;;;38.70;22.60;;;;;;;0.62;81.16;99816.14;120600;1150;104432;-82
2021/01/08 08:19:13;;;;;;;38.23;22.23;;;;;;;0.64;81.20;99819.56;120631;1151;105112;-82
2021/01/08 08:21:49;;;;;;;40.57;23.70;;;;;;;0.69;81.21;99805.02;120653;1151;104319;-83
2021/01/08 08:24:17;;;;;;;39.30;23.77;;;;;;;0.73;81.10;99809.33;120611;1151;104346;-83
2021/01/08 08:26:51;;;;;;;38.10;22.67;;;;;;;0.76;81.17;99810.17;120660;1151;103120;-83
2021/01/08 08:29:19;;;;;;;37.35;22.35;;;;;;;0.78;81.02;99815.30;120544;1151;104591;-83
2021/01/08 08:31:49;;;;;;;38.40;24.23;;;;;;;0.78;80.73;99820.44;120604;1151;104474;-84
2021/01/08 08:34:31;;;;;;;37.30;21.77;;;;;;;0.76;80.87;99817.87;120711;1151;104369;-83
2021/01/08 08:37:06;;;;;;;41.30;23.13;;;;;;;0.78;81.06;99810.17;120681;1151;104377;-83
2021/01/08 08:39:33;;;;;;;36.90;22.03;;;;;;;0.78;80.69;99810.17;120665;1151;101969;-83
2021/01/08 08:42:01;;;;;;;41.63;24.10;;;;;;;0.82;80.98;99814.44;120593;1151;104279;-82
2021/01/08 08:44:30;;;;;;;59.97;23.33;;;;;;;0.83;81.29;99814.44;120648;1151;104559;-80
2021/01/08 08:46:58;;;;;;;40.47;23.13;;;;;;;0.90;81.08;99815.31;120650;1149;104508;-82
2021/01/08 08:49:36;;;;;;;39.80;21.97;;;;;;;0.89;80.80;99819.56;120688;1151;104483;-83
2021/01/08 08:52:05;;;;;;;36.97;23.13;;;;;;;0.89;80.82;99811.01;120628;1151;104500;-82
2021/01/08 08:54:39;;;;;;;38.97;22.53;;;;;;;0.90;80.98;99807.61;120602;1151;104491;-83
2021/01/08 08:57:10;;;;;;;36.40;22.90;;;;;;;0.91;80.50;99806.76;120570;1151;104326;-81
2021/01/08 08:59:45;;;;;;;34.97;21.90;;;;;;;0.88;80.56;99809.30;120576;1151;104500;-82
2021/01/08 09:02:15;;;;;;;36.60;21.47;;;;;;;0.89;80.66;99809.30;120590;1151;104868;-83
2021/01/08 09:05:04;;;;;;;37.77;21.73;;;;;;;0.90;80.46;99810.18;120636;1150;104435;-83
2021/01/08 09:07:39;;;;;;;35.97;21.67;;;;;;;0.95;80.40;99811.03;120552;1151;104451;-82
2021/01/08 09:10:14;;;;;;;37.80;22.53;;;;;;;0.98;80.98;99813.59;120638;1151;104487;-82
2021/01/08 09:12:48;;;;;;;37.63;23.60;;;;;;;1.04;81.05;99811.01;120689;1150;104522;-82
2021/01/08 09:15:32;;;;;;;35.87;21.93;;;;;;;1.08;80.54;99806.75;120620;1151;104371;-83
2021/01/08 09:18:38;;;;;;;35.50;21.30;;;;;;;1.11;80.64;99805.03;120645;1151;103174;-81
2021/01/08 09:21:18;;;;;;;35.70;22.47;;;;;;;1.16;80.20;99803.30;120588;1151;104461;-83
2021/01/08 09:23:47;;;;;;;32.17;20.03;;;;;;;1.19;80.05;99803.30;120552;1150;104488;-83
2021/01/08 09:26:35;;;;;;;36.17;22.10;;;;;;;1.17;79.99;99799.88;120511;1151;104343;-82
2021/01/08 09:29:02;;;;;;;36.77;22.10;;;;;;;1.21;80.15;99796.44;120590;1151;103756;-84
2021/01/08 09:31:39;;;;;;;34.85;21.25;;;;;;;1.27;79.83;99795.59;120594;1151;104473;-83
2021/01/08 09:34:08;;;;;;;35.83;21.20;;;;;;;1.31;80.05;99791.30;120523;1151;104406;-83
2021/01/08 09:36:38;;;;;;;34.25;20.95;;;;;;;1.38;79.96;99792.98;120570;1151;104308;-85
2021/01/08 09:39:11;;;;;;;36.50;22.10;;;;;;;1.42;79.92;99799.81;120602;1151;104329;-84
2021/01/08 09:41:41;;;;;;;34.47;21.47;;;;;;;1.47;79.86;99793.83;120636;1151;104358;-83
2021/01/08 09:44:11;;;;;;;34.53;21.30;;;;;;;1.54;79.44;99792.08;120530;1150;104451;-83
2021/01/08 09:47:04;;;;;;;33.77;21.70;;;;;;;1.57;79.20;99789.50;120567;1151;104547;-83
2021/01/08 09:49:50;;;;;;;34.90;21.20;;;;;;;1.58;79.06;99787.78;120563;1150;104538;-82
2021/01/08 09:52:27;;;;;;;34.97;21.53;;;;;;;1.62;79.04;99782.66;120602;1151;104375;-82
2021/01/08 09:55:28;;;;;;;34.03;20.47;;;;;;;1.64;78.68;99782.64;120662;1150;104380;-81
2021/01/08 09:58:02;;;;;;;34.67;21.37;;;;;;;1.64;78.28;99780.08;121384;1150;104403;-81
2021/01/08 10:00:36;;;;;;;43.00;23.87;;;;;;;1.64;78.78;99778.36;121395;1149;103176;-81
2021/01/08 10:03:05;;;;;;;33.50;20.60;;;;;;;1.65;78.92;99774.92;120857;1151;104350;-81
2021/01/08 10:05:35;;;;;;;32.80;20.60;;;;;;;1.70;78.38;99780.89;120659;1151;104465;-81
2021/01/08 10:08:04;;;;;;;38.50;21.07;;;;;;;1.73;78.45;99780.87;120649;1150;104413;-80
2021/01/08 10:10:39;;;;;;;34.47;21.63;;;;;;;1.78;78.20;99779.13;120629;1151;104455;-81
2021/01/08 10:13:14;;;;;;;30.37;19.17;;;;;;;1.84;77.83;99774.85;120591;1150;104352;-82
2021/01/08 10:15:54;;;;;;;32.27;20.43;;;;;;;1.79;77.97;99779.98;120628;1150;103202;-81
2021/01/08 10:18:32;;;;;;;32.23;20.10;;;;;;;1.85;78.38;99784.27;120596;1151;104497;-81
2021/01/08 10:21:07;;;;;;;33.07;21.23;;;;;;;1.89;78.13;99778.25;120613;1151;104346;-83
2021/01/08 10:23:41;;;;;;;33.07;20.00;;;;;;;1.93;77.60;99779.94;120585;1151;104512;-81
2021/01/08 10:26:18;;;;;;;28.20;18.50;;;;;;;1.95;77.51;99773.06;120554;1151;104414;-81
2021/01/08 10:28:53;;;;;;;36.33;21.87;;;;;;;2.01;77.89;99780.77;120553;1151;104362;-81
2021/01/08 10:31:22;;;;;;;35.20;20.53;;;;;;;2.04;77.42;99773.89;120599;1151;104799;-80
2021/01/08 10:33:50;;;;;;;33.30;20.23;;;;;;;2.08;77.22;99777.30;120553;1151;104322;-81
2021/01/08 10:36:18;;;;;;;29.43;19.37;;;;;;;2.07;77.03;99770.44;120578;1151;104433;-83
2021/01/08 10:38:45;;;;;;;32.47;19.93;;;;;;;2.09;77.47;99769.56;120513;1151;104412;-82
2021/01/08 10:41:17;;;;;;;33.53;21.27;;;;;;;2.13;77.12;99767.82;120523;1151;104308;-83
2021/01/08 10:43:45;;;;;;;33.47;20.10;;;;;;;2.13;76.71;99771.25;120652;1151;104378;-82
2021/01/08 10:46:13;;;;;;;33.77;20.03;;;;;;;2.13;77.05;99771.25;120599;1151;104380;-82
2021/01/08 10:48:43;;;;;;;35.03;21.27;;;;;;;2.11;77.04;99765.27;120541;1150;104572;-82
2021/01/08 10:51:10;;;;;;;33.97;20.80;;;;;;;2.11;76.76;99761.84;120616;1151;104223;-82
2021/01/08 10:53:37;;;;;;;32.95;20.00;;;;;;;2.05;76.78;99762.73;120576;1151;104483;-81
2021/01/08 10:56:05;;;;;;;35.08;20.80;;;;;;;2.03;76.53;99761.89;120638;1150;104511;-82
2021/01/08 10:58:33;;;;;;;32.27;20.93;;;;;;;2.04;76.96;99760.17;120532;1151;104812;-81
2021/01/08 11:01:02;;;;;;;33.73;21.00;;;;;;;2.05;76.79;99764.45;120546;1151;103402;-82
2021/01/08 11:03:30;;;;;;;31.87;19.57;;;;;;;2.06;76.58;99761.02;120495;1150;103266;-82
2021/01/08 11:05:58;;;;;;;30.20;20.53;;;;;;;2.07;76.46;99755.00;120568;1151;102564;-83
2021/01/08 11:08:25;;;;;;;33.00;20.93;;;;;;;2.06;76.94;99759.30;120560;1150;104403;-82
2021/01/08 11:10:52;;;;;;;32.73;20.35;;;;;;;2.08;76.68;99759.28;120666;1150;104412;-82
2021/01/08 11:13:19;;;;;;;36.27;20.90;;;;;;;2.02;76.50;99757.61;120624;1150;104178;-81
2021/01/08 11:15:47;;;;;;;34.20;21.67;;;;;;;2.04;76.66;99757.60;120602;1151;104345;-81
2021/01/08 11:18:14;;;;;;;36.50;21.85;;;;;;;2.05;76.78;99761.88;120593;1151;104575;-82
2021/01/08 11:20:46;;;;;;;36.10;21.83;;;;;;;2.08;76.78;99761.86;120563;1151;104432;-83
2021/01/08 11:23:14;;;;;;;35.43;22.07;;;;;;;2.08;76.99;99759.28;120621;1150;104345;-83